createdAt,value
2019-03-27T00:01:55.184Z,13.77
2019-03-27T00:04:25.054Z,15.20
2019-03-27T00:06:54.945Z,15.27
2019-03-27T00:09:24.789Z,13.80
2019-03-27T00:11:54.656Z,15.67
2019-03-27T00:14:24.492Z,15.27
2019-03-27T00:16:54.324Z,15.97
2019-03-27T00:19:24.211Z,14.60
2019-03-27T00:21:54.055Z,18.73
2019-03-27T00:24:24.303Z,12.77
2019-03-27T00:26:54.146Z,12.60
2019-03-27T00:29:24.022Z,16.23
2019-03-27T00:31:53.908Z,11.63
2019-03-27T00:34:23.748Z,14.20
2019-03-27T00:36:53.695Z,14.27
2019-03-27T00:39:23.498Z,13.57
2019-03-27T00:41:53.286Z,13.80
2019-03-27T00:44:23.543Z,14.73
2019-03-27T00:46:53.328Z,13.23
2019-03-27T00:49:23.210Z,17.70
2019-03-27T00:51:53.312Z,17.33
2019-03-27T00:54:23.386Z,16.90
2019-03-27T00:56:53.401Z,13.77
2019-03-27T00:59:23.421Z,17.03
2019-03-27T01:01:53.235Z,14.57
2019-03-27T01:04:23.394Z,17.53
2019-03-27T01:06:53.186Z,12.30
2019-03-27T01:09:23.117Z,19.63
2019-03-27T01:11:52.886Z,15.17
2019-03-27T01:14:22.717Z,16.57
2019-03-27T01:16:52.637Z,14.23
2019-03-27T01:19:22.426Z,15.03
2019-03-27T01:21:52.240Z,13.50
2019-03-27T01:24:22.011Z,16.03
2019-03-27T01:26:51.885Z,14.10
2019-03-27T01:29:21.638Z,19.30
2019-03-27T01:31:51.379Z,17.77
2019-03-27T01:34:21.567Z,15.77
2019-03-27T01:36:51.404Z,16.27
2019-03-27T01:39:21.567Z,17.63
2019-03-27T01:41:51.417Z,17.43
2019-03-27T01:44:21.194Z,20.00
2019-03-27T01:46:51.137Z,13.20
2019-03-27T01:49:21.853Z,18.80
2019-03-27T01:52:12.005Z,20.53
2019-03-27T01:54:41.782Z,17.63
2019-03-27T01:57:11.706Z,17.17
2019-03-27T01:59:41.709Z,16.97
2019-03-27T02:02:11.764Z,16.17
2019-03-27T02:04:41.591Z,14.90
2019-03-27T02:07:11.400Z,22.33
2019-03-27T02:09:41.202Z,17.33
2019-03-27T02:12:10.974Z,14.27
2019-03-27T02:14:40.793Z,15.40
2019-03-27T02:17:10.671Z,13.90
2019-03-27T02:19:40.422Z,17.33
2019-03-27T02:22:49.736Z,15.77
2019-03-27T02:25:19.750Z,14.03
2019-03-27T02:27:49.812Z,16.93
2019-03-27T02:30:19.563Z,17.40
2019-03-27T02:32:49.357Z,21.33
2019-03-27T02:35:19.404Z,17.90
2019-03-27T02:37:50.102Z,12.83
2019-03-27T02:40:20.117Z,17.17
2019-03-27T02:42:49.936Z,15.53
2019-03-27T02:45:19.720Z,17.73
2019-03-27T02:47:49.536Z,17.03
2019-03-27T02:50:19.797Z,16.40
2019-03-27T02:52:49.630Z,16.93
2019-03-27T02:55:19.733Z,21.30
2019-03-27T02:57:49.490Z,18.93
2019-03-27T03:00:58.416Z,15.47
2019-03-27T03:03:28.587Z,16.23
2019-03-27T03:05:58.359Z,16.17
2019-03-27T03:08:28.152Z,17.23
2019-03-27T03:10:57.966Z,18.63
2019-03-27T03:13:27.719Z,17.43
2019-03-27T03:15:57.490Z,16.53
2019-03-27T03:18:27.298Z,14.30
2019-03-27T03:20:57.054Z,18.10
2019-03-27T03:23:26.835Z,15.80
2019-03-27T03:25:56.720Z,18.10
2019-03-27T03:28:26.523Z,19.77
2019-03-27T03:30:56.301Z,20.30
2019-03-27T03:33:26.086Z,16.40
2019-03-27T03:35:55.898Z,16.27
2019-03-27T03:38:25.670Z,17.83
2019-03-27T03:40:55.560Z,16.40
2019-03-27T03:43:25.430Z,19.10
2019-03-27T03:45:55.269Z,17.33
2019-03-27T03:48:25.087Z,18.63
2019-03-27T03:51:34.059Z,19.23
2019-03-27T03:54:24.003Z,17.93
2019-03-27T03:57:32.894Z,23.87
2019-03-27T04:00:44.164Z,27.97
2019-03-27T04:03:14.235Z,21.57
2019-03-27T04:05:44.107Z,21.60
2019-03-27T04:08:13.887Z,21.00
2019-03-27T04:10:43.811Z,23.60
2019-03-27T04:13:14.004Z,18.87
2019-03-27T04:15:43.991Z,23.53
2019-03-27T04:18:13.727Z,21.87
2019-03-27T04:20:43.527Z,20.17
2019-03-27T04:23:13.300Z,19.10
2019-03-27T04:26:08.288Z,21.93
2019-03-27T04:28:14.642Z,21.63
2019-03-27T04:30:44.390Z,22.27
2019-03-27T04:33:14.146Z,17.63
2019-03-27T04:35:43.918Z,22.43
2019-03-27T04:38:13.703Z,20.43
2019-03-27T04:40:43.473Z,20.67
2019-03-27T04:43:13.305Z,24.93
2019-03-27T04:45:43.172Z,21.83
2019-03-27T04:48:12.976Z,24.17
2019-03-27T04:50:42.856Z,21.60
2019-03-27T04:53:12.638Z,25.93
2019-03-27T04:55:42.758Z,23.00
2019-03-27T04:58:12.553Z,19.37
2019-03-27T05:00:42.394Z,25.43
2019-03-27T05:03:12.202Z,24.53
2019-03-27T05:05:42.080Z,22.23
2019-03-27T05:08:12.062Z,30.63
2019-03-27T05:10:41.916Z,30.20
2019-03-27T05:13:11.746Z,32.80
2019-03-27T05:15:41.501Z,28.97
2019-03-27T05:18:11.700Z,31.23
2019-03-27T05:20:41.477Z,30.50
2019-03-27T05:23:11.284Z,25.30
2019-03-27T05:25:41.070Z,27.87
2019-03-27T05:28:11.765Z,30.40
2019-03-27T05:30:41.577Z,27.27
2019-03-27T05:33:11.452Z,34.87
2019-03-27T05:35:41.258Z,40.13
2019-03-27T05:38:11.106Z,38.97
2019-03-27T05:40:40.930Z,42.20
2019-03-27T05:43:10.793Z,42.03
2019-03-27T05:45:40.637Z,34.33
2019-03-27T05:48:10.788Z,46.37
2019-03-27T05:50:40.602Z,43.43
2019-03-27T05:53:10.822Z,47.57
2019-03-27T05:55:40.650Z,55.47
2019-03-27T05:58:10.643Z,69.20
2019-03-27T06:00:40.557Z,65.47
2019-03-27T06:03:10.897Z,56.63
2019-03-27T06:05:41.723Z,52.87
2019-03-27T06:08:50.672Z,46.23
2019-03-27T06:11:20.446Z,47.23
2019-03-27T06:13:50.282Z,38.10
2019-03-27T06:16:20.166Z,36.17
2019-03-27T06:18:50.025Z,32.67
2019-03-27T06:21:19.832Z,45.43
2019-03-27T06:23:50.027Z,33.33
2019-03-27T06:26:19.969Z,35.37
2019-03-27T06:28:50.103Z,33.53
2019-03-27T06:31:19.918Z,38.00
2019-03-27T06:33:49.752Z,33.07
2019-03-27T06:36:19.595Z,33.27
2019-03-27T06:38:49.822Z,29.77
2019-03-27T06:41:19.719Z,33.13
2019-03-27T06:43:49.556Z,29.97
2019-03-27T06:46:19.450Z,29.23
2019-03-27T06:48:49.336Z,27.50
2019-03-27T06:51:19.148Z,30.50
2019-03-27T06:53:48.987Z,29.13
2019-03-27T06:56:18.855Z,28.80
2019-03-27T06:58:54.359Z,32.20
2019-03-27T07:01:20.238Z,27.50
2019-03-27T07:03:50.354Z,31.50
2019-03-27T07:06:20.130Z,29.93
2019-03-27T07:08:49.935Z,24.93
2019-03-27T07:11:19.787Z,25.80
2019-03-27T07:13:49.588Z,37.00
2019-03-27T07:16:19.437Z,31.97
2019-03-27T07:18:50.748Z,37.47
2019-03-27T07:21:20.621Z,33.50
2019-03-27T07:23:50.472Z,32.70
2019-03-27T07:26:20.405Z,35.37
2019-03-27T07:28:50.729Z,31.87
2019-03-27T07:31:20.624Z,32.83
2019-03-27T07:33:50.867Z,32.53
2019-03-27T07:36:20.740Z,31.70
2019-03-27T07:38:50.519Z,34.20
2019-03-27T07:41:20.610Z,36.43
2019-03-27T07:43:50.673Z,29.93
2019-03-27T07:46:21.410Z,38.97
2019-03-27T07:48:54.140Z,30.10
2019-03-27T07:51:22.733Z,40.60
2019-03-27T07:53:52.519Z,37.37
2019-03-27T07:56:23.153Z,36.67
2019-03-27T07:58:53.040Z,36.80
2019-03-27T08:01:23.018Z,35.40
2019-03-27T08:03:52.765Z,37.67
2019-03-27T08:06:22.535Z,43.03
2019-03-27T08:08:52.468Z,38.63
2019-03-27T08:11:22.817Z,39.97
2019-03-27T08:13:52.591Z,36.33
2019-03-27T08:16:22.408Z,30.97
2019-03-27T08:18:52.149Z,41.37
2019-03-27T08:21:21.951Z,31.83
2019-03-27T08:23:51.756Z,37.53
2019-03-27T08:26:21.598Z,35.47
2019-03-27T08:28:51.462Z,32.73
2019-03-27T08:31:21.373Z,37.20
2019-03-27T08:33:51.142Z,33.33
2019-03-27T08:36:20.896Z,34.73
2019-03-27T08:38:50.718Z,36.87
2019-03-27T08:41:20.479Z,28.60
2019-03-27T08:43:50.602Z,33.63
2019-03-27T08:46:20.350Z,33.23
2019-03-27T08:48:50.142Z,27.50
2019-03-27T08:51:19.903Z,23.37
2019-03-27T08:53:49.707Z,26.93
2019-03-27T08:56:19.474Z,28.40
2019-03-27T08:58:49.243Z,28.70
2019-03-27T09:01:19.053Z,26.63
2019-03-27T09:03:48.885Z,24.83
2019-03-27T09:06:32.782Z,27.37
2019-03-27T09:08:51.031Z,34.07
2019-03-27T09:11:20.840Z,28.27
2019-03-27T09:13:50.616Z,27.33
2019-03-27T09:16:20.442Z,23.77
2019-03-27T09:18:50.212Z,26.17
2019-03-27T09:21:20.369Z,25.43
2019-03-27T09:23:50.182Z,30.33
2019-03-27T09:26:19.948Z,24.93
2019-03-27T09:28:49.741Z,25.30
2019-03-27T09:31:19.544Z,24.77
2019-03-27T09:33:49.330Z,24.73
2019-03-27T09:36:19.401Z,21.77
2019-03-27T09:38:49.227Z,23.53
2019-03-27T09:41:21.431Z,22.73
2019-03-27T09:43:50.506Z,23.27
2019-03-27T09:46:20.270Z,22.73
2019-03-27T09:48:50.056Z,19.13
2019-03-27T09:51:19.813Z,18.97
2019-03-27T09:53:52.954Z,20.20
2019-03-27T09:56:21.079Z,18.80
2019-03-27T09:59:09.977Z,22.17
2019-03-27T10:01:39.722Z,22.80
2019-03-27T10:04:09.913Z,21.37
2019-03-27T10:06:39.945Z,28.37
2019-03-27T10:09:09.799Z,24.27
2019-03-27T10:11:39.578Z,22.80
2019-03-27T10:14:09.368Z,19.07
2019-03-27T10:16:39.179Z,19.87
2019-03-27T10:19:08.962Z,24.10
2019-03-27T10:21:38.745Z,21.87
2019-03-27T10:24:08.499Z,20.10
2019-03-27T10:26:38.310Z,20.83
2019-03-27T10:29:08.118Z,18.90
2019-03-27T10:31:38.063Z,21.00
2019-03-27T10:34:07.924Z,17.17
2019-03-27T10:36:37.751Z,19.80
2019-03-27T10:39:08.524Z,19.03
2019-03-27T10:41:38.398Z,18.37
2019-03-27T10:44:08.170Z,18.53
2019-03-27T10:46:38.043Z,17.57
2019-03-27T10:49:07.827Z,18.40
2019-03-27T10:51:37.637Z,21.00
2019-03-27T10:54:07.406Z,19.40
2019-03-27T10:56:37.289Z,19.50
2019-03-27T10:59:07.091Z,27.40
2019-03-27T11:01:36.949Z,20.20
2019-03-27T11:04:06.760Z,24.80
2019-03-27T11:06:36.564Z,13.93
2019-03-27T11:09:09.495Z,13.57
2019-03-27T11:11:39.374Z,15.20
2019-03-27T11:14:09.145Z,11.70
2019-03-27T11:19:54.196Z,10.93
2019-03-27T11:22:24.026Z,11.40
2019-03-27T11:24:53.830Z,7.13
2019-03-27T11:27:23.687Z,8.93
2019-03-27T11:29:53.796Z,11.97
2019-03-27T11:32:23.714Z,7.90
2019-03-27T11:34:58.614Z,8.50
2019-03-27T11:37:28.689Z,9.87
2019-03-27T11:39:59.038Z,10.10
2019-03-27T11:42:29.048Z,7.93
2019-03-27T11:45:17.989Z,8.93
2019-03-27T11:47:47.955Z,9.30
2019-03-27T11:50:18.020Z,7.77
2019-03-27T11:52:48.896Z,9.07
2019-03-27T11:55:57.818Z,8.50
2019-03-27T11:58:28.161Z,11.47
2019-03-27T12:00:58.008Z,13.10
2019-03-27T12:03:27.997Z,13.17
2019-03-27T12:05:58.310Z,11.47
2019-03-27T12:08:28.338Z,13.23
2019-03-27T12:10:58.225Z,14.10
2019-03-27T12:13:28.765Z,12.37
2019-03-27T12:16:00.307Z,13.43
2019-03-27T12:18:31.967Z,13.07
2019-03-27T12:21:02.359Z,12.40
2019-03-27T12:23:32.367Z,10.70
2019-03-27T12:26:02.366Z,10.07
2019-03-27T12:28:32.243Z,11.47
2019-03-27T12:31:02.148Z,10.73
2019-03-27T12:33:50.826Z,9.73
2019-03-27T12:36:20.718Z,11.23
2019-03-27T12:38:51.598Z,15.10
2019-03-27T12:41:21.447Z,15.90
2019-03-27T12:43:51.229Z,10.43
2019-03-27T12:46:21.422Z,14.13
2019-03-27T12:48:51.224Z,11.67
2019-03-27T12:51:21.031Z,15.43
2019-03-27T12:53:52.307Z,10.40
2019-03-27T12:56:22.243Z,12.27
2019-03-27T12:58:52.082Z,10.60
2019-03-27T13:01:21.975Z,9.73
2019-03-27T13:03:51.822Z,11.60
2019-03-27T13:06:21.726Z,11.40
2019-03-27T13:08:51.612Z,11.67
2019-03-27T13:11:21.468Z,11.77
2019-03-27T13:13:51.355Z,11.17
2019-03-27T13:16:21.116Z,11.27
2019-03-27T13:18:51.741Z,12.10
2019-03-27T13:21:26.589Z,12.47
2019-03-27T13:23:53.448Z,14.33
2019-03-27T13:26:23.305Z,12.73
2019-03-27T13:28:53.129Z,14.63
2019-03-27T13:31:22.994Z,16.27
2019-03-27T13:33:52.897Z,15.30
2019-03-27T13:36:22.738Z,16.07
2019-03-27T13:38:52.678Z,15.37
2019-03-27T13:41:22.524Z,18.40
2019-03-27T13:43:52.383Z,15.23
2019-03-27T13:46:22.188Z,15.10
2019-03-27T13:49:31.093Z,15.17
2019-03-27T13:52:00.905Z,17.70
2019-03-27T13:54:31.397Z,18.30
2019-03-27T13:57:01.256Z,15.20
2019-03-27T13:59:31.634Z,15.17
2019-03-27T14:02:01.480Z,13.77
2019-03-27T14:04:31.320Z,15.03
2019-03-27T14:07:01.247Z,14.47
2019-03-27T14:12:30.298Z,14.10
2019-03-27T14:15:02.340Z,14.43
2019-03-27T14:17:32.182Z,13.47
2019-03-27T14:20:02.382Z,14.83
2019-03-27T14:22:32.228Z,15.53
2019-03-27T14:25:02.295Z,11.80
2019-03-27T14:27:32.230Z,16.57
2019-03-27T14:30:02.416Z,13.43
2019-03-27T14:32:32.368Z,12.57
2019-03-27T14:35:02.311Z,14.87
2019-03-27T14:37:32.428Z,11.90
2019-03-27T14:43:22.783Z,14.20
2019-03-27T14:45:54.453Z,16.03
2019-03-27T14:48:44.551Z,19.00
2019-03-27T14:51:14.437Z,18.53
2019-03-27T14:53:44.517Z,17.23
2019-03-27T14:58:53.704Z,17.10
2019-03-27T15:01:23.674Z,14.70
2019-03-27T15:03:53.558Z,14.77
2019-03-27T15:06:59.817Z,19.57
2019-03-27T15:09:30.177Z,18.60
2019-03-27T15:12:00.476Z,16.70
2019-03-27T15:14:30.453Z,16.40
2019-03-27T15:17:00.542Z,17.70
2019-03-27T15:19:31.276Z,18.20
2019-03-27T15:22:01.101Z,18.93
2019-03-27T15:24:30.913Z,18.90
2019-03-27T15:27:00.913Z,19.10
2019-03-27T15:29:50.007Z,18.13
2019-03-27T15:32:19.985Z,16.30
2019-03-27T16:21:20.329Z,14.30
2019-03-27T17:31:24.956Z,12.77
2019-03-27T17:34:05.524Z,11.10
2019-03-27T17:36:35.484Z,10.77
2019-03-27T17:49:46.239Z,12.33
2019-03-27T17:52:16.318Z,13.90
2019-03-27T17:54:46.506Z,11.53
2019-03-27T17:57:16.690Z,16.03
2019-03-27T18:22:19.565Z,16.00
2019-03-27T18:24:49.852Z,13.03
2019-03-27T18:27:19.735Z,12.40
2019-03-27T18:29:49.818Z,13.27
2019-03-27T18:32:20.386Z,14.47
2019-03-27T18:34:50.438Z,12.90
2019-03-27T18:37:20.419Z,13.83
2019-03-27T18:40:12.983Z,11.83
2019-03-27T22:10:13.394Z,19.73
2019-03-27T22:55:50.717Z,19.40
2019-03-27T23:26:11.940Z,22.40
2019-03-27T23:28:41.742Z,23.60
2019-03-27T23:31:11.499Z,22.07
2019-03-27T23:33:42.015Z,21.87
2019-03-27T23:36:12.152Z,19.63
2019-03-27T23:38:42.005Z,18.53
2019-03-27T23:41:11.825Z,21.93
2019-03-27T23:43:41.701Z,21.70
2019-03-27T23:46:11.572Z,24.00
2019-03-27T23:48:41.398Z,21.50
2019-03-27T23:51:11.230Z,21.13
2019-03-27T23:53:41.081Z,22.43
2019-03-27T23:56:16.556Z,20.27
2019-03-27T23:58:42.814Z,20.23
